Flugplatz Bartholomä-Amalienhof

Für EDPU sind keine METAR/TAF Berichte vorhanden.
Es werden die Flugwettermeldungen vom Flugplatz Adolf Würth in 44 km Entfernung angezeigt.

Bericht für EDTY

vom 04.12. um 20:20 UTC

Wind 5 kt aus 70°

Sichtweite 6000 m

aufgebrochene Bewölkung in 17000 ft

Temperatur -2.0°C

Taupunkt -4.0°C

Luftfeuchtigkeit 86%

Luftdruck 989 hPa

EDTY 042020Z AUTO 07005KT 6000 // BKN170/// M02/M04 Q0989

Prognose für EDTY

vom 04.12. um 17:00 UTC

Zwischen 18:00 UTC und 03:00 UTC

variable Windrichtung mit 3 kt

Sichtweite 10 km oder mehr

keine signifikanten Wettererscheinungen

keine Wolken


Am 05.12. zwischen 00:00 UTC und 03:00 UTC zeitweise mit einer Wahrscheinlichkeit von 30%

Code: FZRA


Am 05.12. zwischen 00:00 UTC und 03:00 UTC zeitweise

Wind 6 kt aus 250°

Sichtweite 2000 m

schwacher Schnee

schwacher Regen

TAF EDTY 041700Z 0418/0503 VRB03KT CAVOK TEMPO 0500/0503 25006KT 2000 -SNRA PROB30 TEMPO 0500/0503 -FZRA
Impressum